createdAt,value
2018-04-25T00:02:09.310Z,45.10
2018-04-25T00:04:37.622Z,45.23
2018-04-25T00:07:05.282Z,42.10
2018-04-25T00:09:32.841Z,41.30
2018-04-25T00:12:00.389Z,44.80
2018-04-25T00:14:27.963Z,42.43
2018-04-25T00:16:55.526Z,45.07
2018-04-25T00:19:23.108Z,46.03
2018-04-25T00:21:50.752Z,45.03
2018-04-25T00:24:18.488Z,45.53
2018-04-25T00:26:47.522Z,45.23
2018-04-25T00:29:15.051Z,46.47
2018-04-25T00:31:42.593Z,43.40
2018-04-25T00:34:10.202Z,46.27
2018-04-25T00:36:37.737Z,46.70
2018-04-25T00:39:05.312Z,47.47
2018-04-25T00:41:32.866Z,44.90
2018-04-25T00:44:00.447Z,47.67
2018-04-25T00:46:27.982Z,48.17
2018-04-25T00:48:55.518Z,48.77
2018-04-25T00:51:23.074Z,48.13
2018-04-25T00:53:50.608Z,48.37
2018-04-25T00:56:18.928Z,49.77
2018-04-25T00:58:46.449Z,46.47
2018-04-25T01:01:14.795Z,46.57
2018-04-25T01:03:42.447Z,43.57
2018-04-25T01:06:10.116Z,43.87
2018-04-25T01:08:37.683Z,50.73
2018-04-25T01:11:05.205Z,47.30
2018-04-25T01:13:32.859Z,47.83
2018-04-25T01:16:00.422Z,45.77
2018-04-25T01:18:27.997Z,47.07
2018-04-25T01:20:57.458Z,42.17
2018-04-25T01:23:25.768Z,43.50
2018-04-25T01:26:00.701Z,45.80
2018-04-25T01:28:38.022Z,45.83
2018-04-25T01:34:15.536Z,42.70
2018-04-25T01:36:58.552Z,39.20
2018-04-25T01:39:32.736Z,39.17
2018-04-25T01:42:00.282Z,39.30
2018-04-25T01:44:27.819Z,41.77
2018-04-25T01:46:58.942Z,42.73
2018-04-25T01:52:39.401Z,42.60
2018-04-25T01:55:18.858Z,39.07
2018-04-25T01:57:59.758Z,41.23
2018-04-25T02:00:39.255Z,42.03
2018-04-25T02:03:06.290Z,38.80
2018-04-25T02:05:33.836Z,38.90
2018-04-25T02:08:01.466Z,39.60
2018-04-25T02:10:29.013Z,39.77
2018-04-25T02:12:57.330Z,43.13
2018-04-25T02:15:24.874Z,42.50
2018-04-25T02:17:52.427Z,41.67
2018-04-25T02:20:20.002Z,42.80
2018-04-25T02:22:47.540Z,46.40
2018-04-25T02:25:15.139Z,42.20
2018-04-25T02:27:42.698Z,46.20
2018-04-25T02:30:10.226Z,47.50
2018-04-25T02:32:37.807Z,46.57
2018-04-25T02:35:05.479Z,45.27
2018-04-25T02:37:33.014Z,43.13
2018-04-25T02:40:00.584Z,41.73
2018-04-25T02:42:28.200Z,38.97
2018-04-25T02:44:56.545Z,41.97
2018-04-25T02:47:24.089Z,40.20
2018-04-25T02:49:51.611Z,41.97
2018-04-25T02:52:19.950Z,41.87
2018-04-25T02:54:47.567Z,42.83
2018-04-25T02:57:15.120Z,42.10
2018-04-25T02:59:42.675Z,41.53
2018-04-25T03:02:10.255Z,39.33
2018-04-25T03:04:37.810Z,39.20
2018-04-25T03:07:05.351Z,38.30
2018-04-25T03:09:32.898Z,39.40
2018-04-25T03:12:00.434Z,42.90
2018-04-25T03:14:27.989Z,39.53
2018-04-25T03:16:55.545Z,39.77
2018-04-25T03:19:24.643Z,41.63
2018-04-25T03:21:52.223Z,38.60
2018-04-25T03:24:20.544Z,41.13
2018-04-25T03:26:48.111Z,38.73
2018-04-25T03:29:15.794Z,36.20
2018-04-25T03:31:43.350Z,35.73
2018-04-25T03:34:10.879Z,34.03
2018-04-25T03:36:38.406Z,34.97
2018-04-25T03:39:06.756Z,34.97
2018-04-25T03:41:35.114Z,33.33
2018-04-25T03:44:02.754Z,28.10
2018-04-25T03:46:30.310Z,29.60
2018-04-25T03:48:57.830Z,23.67
2018-04-25T03:51:26.197Z,23.53
2018-04-25T03:53:53.746Z,23.67
2018-04-25T03:56:21.284Z,21.90
2018-04-25T03:58:48.882Z,21.00
2018-04-25T04:01:17.219Z,22.10
2018-04-25T04:03:44.768Z,21.10
2018-04-25T04:06:12.327Z,18.93
2018-04-25T04:08:39.912Z,18.47
2018-04-25T04:11:07.465Z,17.27
2018-04-25T04:13:34.993Z,16.57
2018-04-25T04:16:02.538Z,15.20
2018-04-25T04:18:30.124Z,16.10
2018-04-25T04:20:57.716Z,14.00
2018-04-25T04:23:25.278Z,13.40
2018-04-25T04:25:52.880Z,12.83
2018-04-25T04:28:20.413Z,12.40
2018-04-25T04:30:47.998Z,14.20
2018-04-25T04:33:15.580Z,12.20
2018-04-25T04:35:43.130Z,13.00
2018-04-25T04:38:10.699Z,11.90
2018-04-25T04:40:38.286Z,11.63
2018-04-25T04:43:05.926Z,11.03
2018-04-25T04:45:34.227Z,14.30
2018-04-25T04:48:01.742Z,12.00
2018-04-25T04:50:29.347Z,10.20
2018-04-25T04:52:56.910Z,11.33
2018-04-25T04:55:24.426Z,9.07
2018-04-25T04:57:51.992Z,9.97
2018-04-25T05:00:19.583Z,9.07
2018-04-25T05:02:47.238Z,9.50
2018-04-25T05:05:14.834Z,10.30
2018-04-25T05:07:43.162Z,9.70
2018-04-25T05:10:10.738Z,10.43
2018-04-25T05:12:38.398Z,9.03
2018-04-25T05:15:06.062Z,9.00
2018-04-25T05:17:34.420Z,10.10
2018-04-25T05:20:02.075Z,8.73
2018-04-25T05:22:29.613Z,8.70
2018-04-25T05:24:57.162Z,8.80
2018-04-25T05:27:24.743Z,8.77
2018-04-25T05:29:52.284Z,8.57
2018-04-25T05:32:20.603Z,8.43
2018-04-25T05:34:48.273Z,7.73
2018-04-25T05:37:15.936Z,7.80
2018-04-25T05:39:43.593Z,8.33
2018-04-25T05:42:11.128Z,8.40
2018-04-25T05:44:38.677Z,8.17
2018-04-25T05:47:06.207Z,9.40
2018-04-25T05:49:34.547Z,7.50
2018-04-25T05:52:02.080Z,8.80
2018-04-25T05:54:29.675Z,7.70
2018-04-25T05:56:57.256Z,8.73
2018-04-25T05:59:25.598Z,7.53
2018-04-25T06:01:53.162Z,8.00
2018-04-25T06:04:20.758Z,6.93
2018-04-25T06:06:49.073Z,7.10
2018-04-25T06:09:16.606Z,6.20
2018-04-25T06:11:44.933Z,6.93
2018-04-25T06:14:12.511Z,6.50
2018-04-25T06:16:41.569Z,6.50
2018-04-25T06:19:09.189Z,7.93
2018-04-25T06:21:37.502Z,6.67
2018-04-25T06:24:05.059Z,7.87
2018-04-25T06:26:32.701Z,7.07
2018-04-25T06:29:00.228Z,7.20
2018-04-25T06:31:27.790Z,6.23
2018-04-25T06:33:56.968Z,6.77
2018-04-25T06:36:24.559Z,6.70
2018-04-25T06:38:52.884Z,6.90
2018-04-25T06:41:20.453Z,7.23
2018-04-25T06:43:48.035Z,6.17
2018-04-25T06:46:17.096Z,6.90
2018-04-25T06:48:44.675Z,6.13
2018-04-25T06:51:12.252Z,7.70
2018-04-25T06:53:39.741Z,6.20
2018-04-25T06:56:07.301Z,7.47
2018-04-25T06:58:34.837Z,7.23
2018-04-25T07:01:02.411Z,6.60
2018-04-25T07:03:30.703Z,6.93
2018-04-25T07:05:58.298Z,6.40
2018-04-25T07:08:25.833Z,6.70
2018-04-25T07:10:53.378Z,6.57
2018-04-25T07:13:21.053Z,6.23
2018-04-25T07:15:48.527Z,7.20
2018-04-25T07:18:16.080Z,6.57
2018-04-25T07:20:43.767Z,7.60
2018-04-25T07:23:11.339Z,6.80
2018-04-25T07:25:38.900Z,5.83
2018-04-25T07:28:06.461Z,6.37
2018-04-25T07:30:34.834Z,7.43
2018-04-25T07:33:03.195Z,7.47
2018-04-25T07:35:30.723Z,6.47
2018-04-25T07:37:58.276Z,7.30
2018-04-25T07:40:25.853Z,7.67
2018-04-25T07:42:53.416Z,7.10
2018-04-25T07:45:21.097Z,7.33
2018-04-25T07:47:48.675Z,7.13
2018-04-25T07:50:16.255Z,7.30
2018-04-25T07:52:44.601Z,6.80
2018-04-25T07:55:12.226Z,6.70
2018-04-25T07:57:39.800Z,7.03
2018-04-25T08:00:07.482Z,6.30
2018-04-25T08:02:35.046Z,7.80
2018-04-25T08:05:02.597Z,8.63
2018-04-25T08:07:30.189Z,7.30
2018-04-25T08:09:58.611Z,8.33
2018-04-25T08:12:38.179Z,7.60
2018-04-25T08:15:17.505Z,7.70
2018-04-25T08:17:57.009Z,7.37
2018-04-25T08:20:37.198Z,8.10
2018-04-25T08:23:04.749Z,7.80
2018-04-25T08:25:32.278Z,7.67
2018-04-25T08:27:59.884Z,8.10
2018-04-25T08:30:28.748Z,7.60
2018-04-25T08:32:56.317Z,7.63
2018-04-25T08:35:23.969Z,7.23
2018-04-25T08:37:51.751Z,8.20
2018-04-25T08:40:19.314Z,7.93
2018-04-25T08:42:46.889Z,7.77
2018-04-25T08:45:14.528Z,7.80
2018-04-25T08:47:42.145Z,7.83
2018-04-25T08:50:10.499Z,7.90
2018-04-25T08:52:38.831Z,7.80
2018-04-25T08:55:06.414Z,9.30
2018-04-25T08:57:34.003Z,7.87
2018-04-25T09:00:02.325Z,10.20
2018-04-25T09:02:29.870Z,8.00
2018-04-25T09:04:57.389Z,7.40
2018-04-25T09:07:25.878Z,7.07
2018-04-25T09:09:53.517Z,8.00
2018-04-25T09:12:21.887Z,7.00
2018-04-25T09:14:49.439Z,7.50
2018-04-25T09:17:16.995Z,6.40
2018-04-25T09:19:44.546Z,7.60
2018-04-25T09:22:12.098Z,7.40
2018-04-25T09:24:39.650Z,7.20
2018-04-25T09:27:07.253Z,7.93
2018-04-25T09:29:34.800Z,7.77
2018-04-25T09:32:03.124Z,7.30
2018-04-25T09:34:32.090Z,6.40
2018-04-25T09:36:59.707Z,6.13
2018-04-25T09:39:27.394Z,5.70
2018-04-25T09:41:54.965Z,6.40
2018-04-25T09:44:22.614Z,5.50
2018-04-25T09:46:50.275Z,6.13
2018-04-25T09:49:17.949Z,6.43
2018-04-25T09:51:45.543Z,6.87
2018-04-25T09:54:13.263Z,6.53
2018-04-25T09:56:40.806Z,6.90
2018-04-25T09:59:08.339Z,6.97
2018-04-25T10:01:35.900Z,5.90
2018-04-25T10:04:04.377Z,5.87
2018-04-25T10:06:31.848Z,6.63
2018-04-25T10:08:59.368Z,7.40
2018-04-25T10:11:27.681Z,6.90
2018-04-25T10:13:55.200Z,5.63
2018-04-25T10:16:22.747Z,4.40
2018-04-25T10:18:51.087Z,3.67
2018-04-25T10:21:18.670Z,4.10
2018-04-25T10:23:46.269Z,5.47
2018-04-25T10:26:14.617Z,5.33
2018-04-25T10:28:42.205Z,5.20
2018-04-25T10:31:10.617Z,3.73
2018-04-25T10:33:38.131Z,3.10
2018-04-25T10:36:06.545Z,3.47
2018-04-25T10:38:34.092Z,3.27
2018-04-25T10:41:01.669Z,2.77
2018-04-25T10:43:29.223Z,2.43
2018-04-25T10:45:56.766Z,2.20
2018-04-25T10:48:25.224Z,2.30
2018-04-25T10:50:53.543Z,2.87
2018-04-25T10:53:21.110Z,2.87
2018-04-25T10:55:48.671Z,2.50
2018-04-25T10:58:16.209Z,2.70
2018-04-25T11:00:43.787Z,2.83
2018-04-25T11:03:11.440Z,2.63
2018-04-25T11:05:39.005Z,2.80
2018-04-25T11:08:06.573Z,2.67
2018-04-25T11:10:34.139Z,2.70
2018-04-25T11:13:01.695Z,2.80
2018-04-25T11:15:29.348Z,3.33
2018-04-25T11:17:56.933Z,3.37
2018-04-25T11:20:24.493Z,3.70
2018-04-25T11:22:52.071Z,3.47
2018-04-25T11:25:19.635Z,3.30
2018-04-25T11:27:47.158Z,3.80
2018-04-25T11:30:14.717Z,4.40
2018-04-25T11:32:42.267Z,3.47
2018-04-25T11:35:09.825Z,3.50
2018-04-25T11:37:37.378Z,3.00
2018-04-25T11:40:04.918Z,3.67
2018-04-25T11:42:32.508Z,3.03
2018-04-25T11:45:00.039Z,3.30
2018-04-25T11:47:27.641Z,2.70
2018-04-25T11:49:55.259Z,2.53
2018-04-25T11:52:23.571Z,2.40
2018-04-25T11:54:51.227Z,2.67
2018-04-25T11:57:18.804Z,2.70
2018-04-25T11:59:46.397Z,3.40
2018-04-25T12:02:13.902Z,3.30
2018-04-25T12:04:41.453Z,3.10
2018-04-25T12:07:08.998Z,3.77
2018-04-25T12:09:36.571Z,4.30
2018-04-25T12:12:04.135Z,3.90
2018-04-25T12:14:32.338Z,3.10
2018-04-25T12:16:59.877Z,3.87
2018-04-25T12:19:27.438Z,2.90
2018-04-25T12:21:55.021Z,3.20
2018-04-25T12:24:22.723Z,3.17
2018-04-25T12:26:50.317Z,3.20
2018-04-25T12:29:17.919Z,2.50
2018-04-25T12:31:46.251Z,2.70
2018-04-25T12:34:13.857Z,2.67
2018-04-25T12:36:42.197Z,3.00
2018-04-25T12:39:09.721Z,2.77
2018-04-25T12:41:37.359Z,2.10
2018-04-25T12:44:04.837Z,1.80
2018-04-25T12:46:32.447Z,2.20
2018-04-25T12:48:59.994Z,2.43
2018-04-25T12:51:27.576Z,2.17
2018-04-25T12:53:55.965Z,2.63
2018-04-25T12:56:23.519Z,2.50
2018-04-25T12:58:51.049Z,1.77
2018-04-25T13:01:18.569Z,1.70
2018-04-25T13:03:46.117Z,2.03
2018-04-25T13:06:14.394Z,2.43
2018-04-25T13:08:42.685Z,1.83
2018-04-25T13:11:10.252Z,2.47
2018-04-25T13:13:38.678Z,2.07
2018-04-25T13:16:06.225Z,2.03
2018-04-25T13:18:33.781Z,2.00
2018-04-25T13:21:01.394Z,1.63
2018-04-25T13:23:29.750Z,2.90
2018-04-25T13:25:58.094Z,2.17
2018-04-25T13:28:25.749Z,1.73
2018-04-25T13:30:53.333Z,2.33
2018-04-25T13:33:20.901Z,1.77
2018-04-25T13:35:48.474Z,1.63
2018-04-25T13:38:16.793Z,2.47
2018-04-25T13:40:44.378Z,1.60
2018-04-25T13:43:11.921Z,1.80
2018-04-25T13:45:39.470Z,1.80
2018-04-25T13:48:07.057Z,1.53
2018-04-25T13:50:34.647Z,2.03
2018-04-25T13:53:02.183Z,1.80
2018-04-25T13:55:29.755Z,1.97
2018-04-25T13:57:57.402Z,1.53
2018-04-25T14:00:25.138Z,2.10
2018-04-25T14:02:53.002Z,1.80
2018-04-25T14:05:20.591Z,1.80
2018-04-25T14:07:48.147Z,1.90
2018-04-25T14:10:17.248Z,2.00
2018-04-25T14:12:44.806Z,2.10
2018-04-25T14:15:12.357Z,1.90
2018-04-25T14:17:40.710Z,1.23
2018-04-25T14:20:08.280Z,1.57
2018-04-25T14:22:36.139Z,1.40
2018-04-25T14:25:03.744Z,1.63
2018-04-25T14:27:32.034Z,2.13
2018-04-25T14:30:00.446Z,1.80
2018-04-25T14:32:27.918Z,1.70
2018-04-25T14:34:55.609Z,1.70
2018-04-25T14:37:23.173Z,1.63
2018-04-25T14:39:50.722Z,1.90
2018-04-25T14:42:18.384Z,1.63
2018-04-25T14:44:45.933Z,2.00
2018-04-25T14:47:13.485Z,1.80
2018-04-25T14:49:41.019Z,1.50
2018-04-25T14:52:08.550Z,1.90
2018-04-25T14:54:36.929Z,1.63
2018-04-25T14:57:04.449Z,1.87
2018-04-25T14:59:32.010Z,1.50
2018-04-25T15:01:59.575Z,1.80
2018-04-25T15:04:27.129Z,1.50
2018-04-25T15:06:54.694Z,1.70
2018-04-25T15:09:22.290Z,2.30
2018-04-25T15:11:50.644Z,1.87
2018-04-25T15:14:18.215Z,1.90
2018-04-25T15:16:45.787Z,2.00
2018-04-25T15:19:14.081Z,1.43
2018-04-25T15:21:41.600Z,2.03
2018-04-25T15:24:09.187Z,1.60
2018-04-25T15:26:37.549Z,1.80
2018-04-25T15:29:05.870Z,2.60
2018-04-25T15:31:33.595Z,1.60
2018-04-25T15:34:01.910Z,1.90
2018-04-25T15:36:29.460Z,1.63
2018-04-25T15:38:57.043Z,1.90
2018-04-25T15:41:24.996Z,2.00
2018-04-25T15:43:52.543Z,3.07
2018-04-25T15:46:20.223Z,1.70
2018-04-25T15:48:47.789Z,1.23
2018-04-25T15:51:15.363Z,1.40
2018-04-25T15:53:42.906Z,1.70
2018-04-25T15:56:10.505Z,1.40
2018-04-25T15:58:38.072Z,1.47
2018-04-25T16:01:06.410Z,1.53
2018-04-25T16:03:33.992Z,1.90
2018-04-25T16:06:01.563Z,1.50
2018-04-25T16:08:30.301Z,1.33
2018-04-25T16:10:58.703Z,1.53
2018-04-25T16:13:26.309Z,1.50
2018-04-25T16:15:54.636Z,1.80
2018-04-25T16:21:12.890Z,1.60
2018-04-25T16:23:40.466Z,1.47
2018-04-25T16:28:58.700Z,1.43
2018-04-25T16:31:26.256Z,1.50
2018-04-25T16:33:53.811Z,1.83
2018-04-25T16:36:21.478Z,1.53
2018-04-25T16:38:49.023Z,2.17
2018-04-25T16:41:16.550Z,1.90
2018-04-25T16:43:44.201Z,1.83
2018-04-25T16:46:11.724Z,2.13
2018-04-25T16:48:39.282Z,2.00
2018-04-25T16:51:06.863Z,2.10
2018-04-25T16:53:34.382Z,2.10
2018-04-25T16:56:01.977Z,1.80
2018-04-25T16:58:29.664Z,2.00
2018-04-25T17:00:58.702Z,1.77
2018-04-25T17:03:26.259Z,1.97
2018-04-25T17:05:53.859Z,1.93
2018-04-25T17:08:21.389Z,2.03
2018-04-25T17:10:48.941Z,1.67
2018-04-25T17:13:16.479Z,1.60
2018-04-25T17:15:44.878Z,1.80
2018-04-25T17:18:12.510Z,2.67
2018-04-25T17:23:15.469Z,2.20
2018-04-25T17:25:43.047Z,2.30
2018-04-25T17:28:10.638Z,1.97
2018-04-25T17:30:38.996Z,2.13
2018-04-25T17:33:07.739Z,2.70
2018-04-25T17:35:35.850Z,2.60
2018-04-25T17:38:03.406Z,2.20
2018-04-25T17:40:30.962Z,3.40
2018-04-25T17:42:59.361Z,2.50
2018-04-25T17:45:27.642Z,2.83
2018-04-25T17:47:55.952Z,2.43
2018-04-25T17:50:23.554Z,2.57
2018-04-25T17:52:52.590Z,2.80
2018-04-25T17:55:20.119Z,3.00
2018-04-25T17:57:48.479Z,2.67
2018-04-25T18:00:16.025Z,2.57
2018-04-25T18:02:43.574Z,2.80
2018-04-25T18:05:11.142Z,3.23
2018-04-25T18:07:38.723Z,2.40
2018-04-25T18:10:07.074Z,2.40
2018-04-25T18:12:34.618Z,3.23
2018-04-25T18:15:02.143Z,3.20
2018-04-25T18:17:30.471Z,3.23
2018-04-25T18:19:58.036Z,2.53
2018-04-25T18:22:27.159Z,2.80
2018-04-25T18:24:55.497Z,3.10
2018-04-25T18:27:23.021Z,3.10
2018-04-25T18:29:51.310Z,3.13
2018-04-25T18:32:18.857Z,2.90
2018-04-25T18:34:47.176Z,2.87
2018-04-25T18:37:14.822Z,3.20
2018-04-25T18:39:43.099Z,2.50
2018-04-25T18:42:10.970Z,2.60
2018-04-25T18:44:38.624Z,3.10
2018-04-25T18:47:06.204Z,2.50
2018-04-25T18:49:33.817Z,2.90
2018-04-25T18:52:02.095Z,3.10
2018-04-25T18:54:30.518Z,3.10
2018-04-25T18:56:58.098Z,3.23
2018-04-25T18:59:26.418Z,3.40
2018-04-25T19:01:54.004Z,3.27
2018-04-25T19:04:21.579Z,3.20
2018-04-25T19:06:49.127Z,3.40
2018-04-25T19:09:16.735Z,3.60
2018-04-25T19:11:45.463Z,3.37
2018-04-25T19:14:13.064Z,4.23
2018-04-25T19:16:40.691Z,3.77
2018-04-25T19:19:08.243Z,3.93
2018-04-25T19:21:35.821Z,4.17
2018-04-25T19:24:03.403Z,4.20
2018-04-25T19:26:31.068Z,4.17
2018-04-25T19:28:58.759Z,4.50
2018-04-25T19:31:27.367Z,4.30
2018-04-25T19:33:55.064Z,4.73
2018-04-25T19:36:22.634Z,5.00
2018-04-25T19:38:50.271Z,4.47
2018-04-25T19:41:17.790Z,3.73
2018-04-25T19:43:45.404Z,4.27
2018-04-25T19:46:12.987Z,4.40
2018-04-25T19:48:40.614Z,4.43
2018-04-25T19:51:08.154Z,4.20
2018-04-25T19:53:35.730Z,4.27
2018-04-25T19:56:03.254Z,5.30
2018-04-25T19:58:30.831Z,6.60
2018-04-25T20:00:58.800Z,5.70
2018-04-25T20:03:26.378Z,6.90
2018-04-25T20:05:53.950Z,5.60
2018-04-25T20:08:21.584Z,5.40
2018-04-25T20:10:50.265Z,6.13
2018-04-25T20:13:17.884Z,5.40
2018-04-25T20:15:46.192Z,4.70
2018-04-25T20:18:13.724Z,4.60
2018-04-25T20:20:42.448Z,6.10
2018-04-25T20:23:10.174Z,5.70
2018-04-25T20:25:38.482Z,5.40
2018-04-25T20:28:06.079Z,5.00
2018-04-25T20:30:33.597Z,5.20
2018-04-25T20:33:01.147Z,4.60
2018-04-25T20:35:28.702Z,5.00
2018-04-25T20:37:56.259Z,4.60
2018-04-25T20:40:23.943Z,5.33
2018-04-25T20:42:51.533Z,4.80
2018-04-25T20:45:19.045Z,5.23
2018-04-25T20:47:46.593Z,4.80
2018-04-25T20:50:15.007Z,7.37
2018-04-25T20:52:43.395Z,6.50
2018-04-25T20:55:11.637Z,7.73
2018-04-25T20:57:39.226Z,8.13
2018-04-25T21:00:06.806Z,8.83
2018-04-25T21:02:34.376Z,10.40
2018-04-25T21:05:01.987Z,8.57
2018-04-25T21:07:29.542Z,9.60
2018-04-25T21:09:57.155Z,7.27
2018-04-25T21:12:24.716Z,7.60
2018-04-25T21:14:53.791Z,7.43
2018-04-25T21:17:21.352Z,7.70
2018-04-25T21:19:49.008Z,7.40
2018-04-25T21:22:16.600Z,9.50
2018-04-25T21:24:44.919Z,8.60
2018-04-25T21:27:12.468Z,8.50
2018-04-25T21:29:40.027Z,8.97
2018-04-25T21:32:07.658Z,6.50
2018-04-25T21:34:35.195Z,7.90
2018-04-25T21:37:02.801Z,8.27
2018-04-25T21:39:30.386Z,7.67
2018-04-25T21:41:57.931Z,7.57
2018-04-25T21:44:25.458Z,6.83
2018-04-25T21:46:53.766Z,7.37
2018-04-25T21:49:21.368Z,7.63
2018-04-25T21:51:48.894Z,6.63
2018-04-25T21:54:16.454Z,13.30
2018-04-25T21:56:44.225Z,8.07
2018-04-25T21:59:11.741Z,6.57
2018-04-25T22:01:40.055Z,6.27
2018-04-25T22:04:07.610Z,6.90
2018-04-25T22:06:35.202Z,6.20
2018-04-25T22:09:02.776Z,7.13
2018-04-25T22:11:30.303Z,6.73
2018-04-25T22:13:57.860Z,7.80
2018-04-25T22:16:25.415Z,6.53
2018-04-25T22:18:52.933Z,6.97
2018-04-25T22:21:21.263Z,7.93
2018-04-25T22:23:48.796Z,6.60
2018-04-25T22:26:16.340Z,8.00
2018-04-25T22:28:43.967Z,7.07
2018-04-25T22:31:11.494Z,7.60
2018-04-25T22:33:39.153Z,7.57
2018-04-25T22:36:06.739Z,7.37
2018-04-25T22:38:34.274Z,6.27
2018-04-25T22:41:01.868Z,6.63
2018-04-25T22:43:30.924Z,7.10
2018-04-25T22:45:58.509Z,7.80
2018-04-25T22:48:26.027Z,7.53
2018-04-25T22:50:53.590Z,6.83
2018-04-25T22:53:21.136Z,7.00
2018-04-25T22:55:48.695Z,7.73
2018-04-25T22:58:16.287Z,7.27
2018-04-25T23:00:43.845Z,7.03
2018-04-25T23:03:11.494Z,6.73
2018-04-25T23:05:39.074Z,6.70
2018-04-25T23:08:06.732Z,8.63
2018-04-25T23:10:34.188Z,8.30
2018-04-25T23:13:01.726Z,7.10
2018-04-25T23:15:29.311Z,7.53
2018-04-25T23:17:56.985Z,7.67
2018-04-25T23:20:24.652Z,7.83
2018-04-25T23:22:52.166Z,6.77
2018-04-25T23:25:19.726Z,7.53
2018-04-25T23:27:47.283Z,8.03
2018-04-25T23:30:14.795Z,7.90
2018-04-25T23:32:42.395Z,7.00
2018-04-25T23:35:09.934Z,8.43
2018-04-25T23:37:38.239Z,7.40
2018-04-25T23:40:06.343Z,8.00
2018-04-25T23:42:33.935Z,7.83
2018-04-25T23:45:02.269Z,7.63
2018-04-25T23:47:29.805Z,7.23
2018-04-25T23:49:57.379Z,7.70
2018-04-25T23:52:24.944Z,7.70
2018-04-25T23:54:52.498Z,8.47
2018-04-25T23:57:20.087Z,7.87
2018-04-25T23:59:49.126Z,8.43
